createdAt,value
2023-01-19T00:01:43.256Z,100.00
2023-01-19T00:04:12.475Z,100.00
2023-01-19T00:06:39.914Z,100.00
2023-01-19T00:09:08.697Z,100.00
2023-01-19T00:11:42.532Z,100.00
2023-01-19T00:14:19.179Z,100.00
2023-01-19T00:16:46.139Z,100.00
2023-01-19T00:19:18.425Z,100.00
2023-01-19T00:21:45.203Z,100.00
2023-01-19T00:24:12.209Z,100.00
2023-01-19T00:26:40.582Z,100.00
2023-01-19T00:29:07.518Z,100.00
2023-01-19T00:31:44.828Z,100.00
2023-01-19T00:34:12.720Z,100.00
2023-01-19T00:36:39.547Z,100.00
2023-01-19T00:39:06.596Z,100.00
2023-01-19T00:41:36.987Z,100.00
2023-01-19T00:44:09.555Z,100.00
2023-01-19T00:46:40.164Z,100.00
2023-01-19T00:49:09.182Z,100.00
2023-01-19T00:51:36.762Z,100.00
2023-01-19T00:54:05.058Z,100.00
2023-01-19T00:56:32.138Z,100.00
2023-01-19T00:58:59.245Z,100.00
2023-01-19T01:01:45.324Z,100.00
2023-01-19T01:04:13.145Z,100.00
2023-01-19T01:06:40.051Z,100.00
2023-01-19T01:09:06.889Z,100.00
2023-01-19T01:11:33.848Z,100.00
2023-01-19T01:14:00.918Z,100.00
2023-01-19T01:16:29.454Z,100.00
2023-01-19T01:18:56.495Z,100.00
2023-01-19T01:21:23.349Z,100.00
2023-01-19T01:23:50.581Z,100.00
2023-01-19T01:26:17.806Z,100.00
2023-01-19T01:28:44.841Z,100.00
2023-01-19T01:31:11.877Z,100.00
2023-01-19T01:33:42.021Z,100.00
2023-01-19T01:36:10.100Z,100.00
2023-01-19T01:38:38.286Z,100.00
2023-01-19T01:41:06.577Z,100.00
2023-01-19T01:43:48.668Z,100.00
2023-01-19T01:46:19.070Z,100.00
2023-01-19T01:48:52.830Z,100.00
2023-01-19T01:51:25.770Z,100.00
2023-01-19T01:54:11.552Z,100.00
2023-01-19T01:56:41.320Z,100.00
2023-01-19T01:59:12.320Z,100.00
2023-01-19T02:01:39.853Z,100.00
2023-01-19T02:04:08.363Z,100.00
2023-01-19T02:06:35.748Z,100.00
2023-01-19T02:09:10.900Z,100.00
2023-01-19T02:11:46.013Z,100.00
2023-01-19T02:14:13.915Z,100.00
2023-01-19T02:16:40.988Z,100.00
2023-01-19T02:19:18.979Z,100.00
2023-01-19T02:21:57.454Z,100.00
2023-01-19T02:24:28.875Z,100.00
2023-01-19T02:26:57.078Z,100.00
2023-01-19T02:29:26.635Z,100.00
2023-01-19T02:31:53.750Z,100.00
2023-01-19T02:34:24.094Z,100.00
2023-01-19T02:36:57.891Z,100.00
2023-01-19T02:39:31.364Z,100.00
2023-01-19T02:42:03.303Z,100.00
2023-01-19T02:44:31.046Z,100.00
2023-01-19T02:47:10.464Z,100.00
2023-01-19T02:49:37.231Z,100.00
2023-01-19T02:52:04.724Z,100.00
2023-01-19T02:54:49.492Z,100.00
2023-01-19T02:57:42.489Z,100.00
2023-01-19T03:00:28.970Z,100.00
2023-01-19T03:03:20.211Z,100.00
2023-01-19T03:05:57.839Z,100.00
2023-01-19T03:08:44.220Z,100.00
2023-01-19T03:11:14.058Z,100.00
2023-01-19T03:13:45.696Z,100.00
2023-01-19T03:16:21.737Z,100.00
2023-01-19T03:18:53.640Z,100.00
2023-01-19T03:21:24.808Z,100.00
2023-01-19T03:23:53.586Z,100.00
2023-01-19T03:26:27.009Z,100.00
2023-01-19T03:28:56.608Z,100.00
2023-01-19T03:31:26.161Z,100.00
2023-01-19T03:33:57.050Z,100.00
2023-01-19T03:36:27.663Z,100.00
2023-01-19T03:38:56.999Z,100.00
2023-01-19T03:41:27.815Z,100.00
2023-01-19T03:43:55.905Z,100.00
2023-01-19T03:46:24.675Z,100.00
2023-01-19T03:48:52.381Z,100.00
2023-01-19T03:51:19.471Z,100.00
2023-01-19T03:53:46.216Z,100.00
2023-01-19T03:56:20.045Z,100.00
2023-01-19T03:58:48.533Z,100.00
2023-01-19T04:01:16.366Z,100.00
2023-01-19T04:03:43.563Z,100.00
2023-01-19T04:06:10.818Z,100.00
2023-01-19T04:08:37.818Z,100.00
2023-01-19T04:11:04.909Z,100.00
2023-01-19T04:13:31.703Z,100.00
2023-01-19T04:16:02.447Z,100.00
2023-01-19T04:18:30.232Z,100.00
2023-01-19T04:21:00.745Z,100.00
2023-01-19T04:23:27.627Z,100.00
2023-01-19T04:25:57.998Z,100.00
2023-01-19T04:28:25.468Z,100.00
2023-01-19T04:30:52.556Z,100.00
2023-01-19T04:33:21.432Z,100.00
2023-01-19T04:35:53.567Z,100.00
2023-01-19T04:38:21.097Z,100.00
2023-01-19T04:40:49.081Z,100.00
2023-01-19T04:43:16.246Z,100.00
2023-01-19T04:45:43.277Z,100.00
2023-01-19T04:48:10.333Z,100.00
2023-01-19T04:50:38.643Z,100.00
2023-01-19T04:53:05.701Z,100.00
2023-01-19T04:55:32.459Z,100.00
2023-01-19T04:57:59.366Z,100.00
2023-01-19T05:00:26.486Z,100.00
2023-01-19T05:02:53.619Z,100.00
2023-01-19T05:05:20.655Z,100.00
2023-01-19T05:07:49.920Z,100.00
2023-01-19T05:10:17.239Z,100.00
2023-01-19T05:12:44.205Z,100.00
2023-01-19T05:15:11.570Z,100.00
2023-01-19T05:17:38.605Z,100.00
2023-01-19T05:20:09.302Z,100.00
2023-01-19T05:22:36.185Z,100.00
2023-01-19T05:25:05.179Z,100.00
2023-01-19T05:27:34.308Z,100.00
2023-01-19T05:30:01.115Z,100.00
2023-01-19T05:32:28.171Z,100.00
2023-01-19T05:34:57.425Z,100.00
2023-01-19T05:37:24.370Z,100.00
2023-01-19T05:39:53.575Z,100.00
2023-01-19T05:42:23.095Z,100.00
2023-01-19T05:44:49.834Z,100.00
2023-01-19T05:47:17.001Z,100.00
2023-01-19T05:49:43.719Z,100.00
2023-01-19T05:52:10.490Z,100.00
2023-01-19T05:54:37.401Z,100.00
2023-01-19T05:57:04.097Z,100.00
2023-01-19T05:59:32.400Z,100.00
2023-01-19T06:01:59.648Z,100.00
2023-01-19T06:04:26.417Z,100.00
2023-01-19T06:06:53.217Z,100.00
2023-01-19T06:09:20.001Z,100.00
2023-01-19T06:11:48.368Z,100.00
2023-01-19T06:14:15.164Z,100.00
2023-01-19T06:16:43.918Z,100.00
2023-01-19T06:19:10.743Z,100.00
2023-01-19T06:21:37.806Z,100.00
2023-01-19T06:24:05.569Z,100.00
2023-01-19T06:26:32.356Z,100.00
2023-01-19T06:28:59.172Z,100.00
2023-01-19T06:31:26.273Z,100.00
2023-01-19T06:33:54.824Z,100.00
2023-01-19T06:36:21.552Z,100.00
2023-01-19T06:38:48.873Z,100.00
2023-01-19T06:41:21.668Z,100.00
2023-01-19T06:43:48.483Z,100.00
2023-01-19T06:46:20.317Z,100.00
2023-01-19T06:48:49.409Z,100.00
2023-01-19T06:51:17.806Z,100.00
2023-01-19T06:53:44.687Z,100.00
2023-01-19T06:56:11.405Z,100.00
2023-01-19T06:58:38.322Z,100.00
2023-01-19T07:01:06.937Z,100.00
2023-01-19T07:03:34.667Z,100.00
2023-01-19T07:06:01.756Z,100.00
2023-01-19T07:08:30.141Z,100.00
2023-01-19T07:11:25.850Z,100.00
2023-01-19T07:13:47.862Z,100.00
2023-01-19T07:16:14.944Z,100.00
2023-01-19T07:18:41.769Z,100.00
2023-01-19T07:21:09.032Z,100.00
2023-01-19T07:23:37.281Z,100.00
2023-01-19T07:26:04.320Z,100.00
2023-01-19T07:28:31.718Z,100.00
2023-01-19T07:30:59.101Z,100.00
2023-01-19T07:33:28.822Z,100.00
2023-01-19T07:35:55.893Z,100.00
2023-01-19T07:38:23.241Z,100.00
2023-01-19T07:41:00.441Z,100.00
2023-01-19T07:43:27.159Z,100.00
2023-01-19T07:45:56.116Z,100.00
2023-01-19T07:48:22.956Z,100.00
2023-01-19T07:50:49.689Z,100.00
2023-01-19T07:53:16.528Z,100.00
2023-01-19T07:55:43.409Z,100.00
2023-01-19T07:58:11.619Z,100.00
2023-01-19T08:00:46.123Z,100.00
2023-01-19T08:03:12.957Z,100.00
2023-01-19T08:05:39.737Z,100.00
2023-01-19T08:08:06.448Z,100.00
2023-01-19T08:10:33.176Z,100.00
2023-01-19T08:13:00.482Z,100.00
2023-01-19T08:15:29.278Z,100.00
2023-01-19T08:17:57.296Z,100.00
2023-01-19T08:20:24.482Z,100.00
2023-01-19T08:22:51.585Z,100.00
2023-01-19T08:25:18.460Z,100.00
2023-01-19T08:27:45.195Z,100.00
2023-01-19T08:30:15.192Z,100.00
2023-01-19T08:32:43.524Z,100.00
2023-01-19T08:35:10.288Z,100.00
2023-01-19T08:37:37.193Z,100.00
2023-01-19T08:40:05.128Z,100.00
2023-01-19T08:42:31.834Z,100.00
2023-01-19T08:44:58.840Z,100.00
2023-01-19T08:47:26.066Z,100.00
2023-01-19T08:49:54.432Z,100.00
2023-01-19T08:52:21.171Z,100.00
2023-01-19T08:54:48.157Z,100.00
2023-01-19T08:57:14.891Z,100.00
2023-01-19T08:59:41.698Z,100.00
2023-01-19T09:02:10.256Z,100.00
2023-01-19T09:04:40.049Z,100.00
2023-01-19T09:07:08.591Z,100.00
2023-01-19T09:09:35.323Z,100.00
2023-01-19T09:12:02.210Z,100.00
2023-01-19T09:14:29.230Z,100.00
2023-01-19T09:16:56.592Z,100.00
2023-01-19T09:19:23.711Z,100.00
2023-01-19T09:21:50.463Z,100.00
2023-01-19T09:24:18.553Z,100.00
2023-01-19T09:26:45.317Z,100.00
2023-01-19T09:29:13.065Z,100.00
2023-01-19T09:31:39.938Z,100.00
2023-01-19T09:34:06.806Z,100.00
2023-01-19T09:36:33.586Z,100.00
2023-01-19T09:39:00.535Z,100.00
2023-01-19T09:41:29.560Z,100.00
2023-01-19T09:43:59.851Z,100.00
2023-01-19T09:46:33.398Z,100.00
2023-01-19T09:49:02.913Z,100.00
2023-01-19T09:51:35.020Z,100.00
2023-01-19T09:54:09.650Z,100.00
2023-01-19T09:56:38.239Z,100.00
2023-01-19T09:59:24.316Z,100.00
2023-01-19T10:02:14.502Z,100.00
2023-01-19T10:04:43.264Z,100.00
2023-01-19T10:07:20.136Z,100.00
2023-01-19T10:10:05.208Z,100.00
2023-01-19T10:12:43.646Z,100.00
2023-01-19T10:15:20.457Z,100.00
2023-01-19T10:17:56.543Z,100.00
2023-01-19T10:20:29.595Z,100.00
2023-01-19T10:22:59.225Z,100.00
2023-01-19T10:25:27.371Z,100.00
2023-01-19T10:27:56.715Z,100.00
2023-01-19T10:30:26.259Z,100.00
2023-01-19T10:32:53.438Z,100.00
2023-01-19T10:35:22.715Z,100.00
2023-01-19T10:37:50.196Z,100.00
2023-01-19T10:40:27.187Z,100.00
2023-01-19T10:42:56.933Z,100.00
2023-01-19T10:45:25.831Z,100.00
2023-01-19T10:47:55.035Z,100.00
2023-01-19T10:50:24.912Z,100.00
2023-01-19T10:52:52.820Z,100.00
2023-01-19T10:55:29.304Z,100.00
2023-01-19T10:57:58.780Z,100.00
2023-01-19T11:00:33.480Z,100.00
2023-01-19T11:03:01.298Z,99.75
2023-01-19T11:05:30.291Z,100.00
2023-01-19T11:07:57.352Z,99.33
2023-01-19T11:10:26.629Z,100.00
2023-01-19T11:13:00.310Z,98.92
2023-01-19T11:15:31.663Z,97.28
2023-01-19T11:17:59.298Z,98.28
2023-01-19T11:20:28.767Z,97.87
2023-01-19T11:23:09.776Z,96.98
2023-01-19T11:25:37.100Z,97.15
2023-01-19T11:28:18.794Z,97.39
2023-01-19T11:30:56.158Z,95.98
2023-01-19T11:33:25.482Z,97.01
2023-01-19T11:36:02.944Z,96.57
2023-01-19T11:38:29.715Z,97.04
2023-01-19T11:40:59.055Z,95.66
2023-01-19T11:43:43.499Z,94.69
2023-01-19T11:46:16.398Z,94.97
2023-01-19T11:48:47.930Z,93.95
2023-01-19T11:51:19.045Z,93.45
2023-01-19T11:53:51.543Z,93.21
2023-01-19T11:56:22.575Z,93.94
2023-01-19T11:58:50.842Z,93.43
2023-01-19T12:01:23.486Z,92.62
2023-01-19T12:03:58.619Z,91.01
2023-01-19T12:06:29.594Z,91.86
2023-01-19T12:09:00.548Z,91.47
2023-01-19T12:11:32.713Z,91.75
2023-01-19T12:14:01.934Z,91.55
2023-01-19T12:16:30.326Z,91.04
2023-01-19T12:19:01.587Z,87.40
2023-01-19T12:21:28.693Z,84.60
2023-01-19T12:24:06.031Z,84.79
2023-01-19T12:26:37.075Z,84.81
2023-01-19T12:29:11.686Z,85.13
2023-01-19T12:31:39.330Z,87.54
2023-01-19T12:34:38.932Z,88.57
2023-01-19T12:37:27.600Z,89.42
2023-01-19T12:39:56.584Z,87.78
2023-01-19T12:42:24.468Z,86.06
2023-01-19T12:45:04.714Z,85.68
2023-01-19T12:47:31.948Z,86.40
2023-01-19T12:50:03.953Z,86.15
2023-01-19T12:52:32.824Z,86.46
2023-01-19T12:55:03.849Z,86.71
2023-01-19T12:57:35.849Z,87.49
2023-01-19T13:00:07.561Z,87.63
2023-01-19T13:02:53.248Z,86.49
2023-01-19T13:05:40.524Z,86.31
2023-01-19T13:08:15.933Z,86.97
2023-01-19T13:11:13.648Z,86.14
2023-01-19T13:13:42.117Z,86.67
2023-01-19T13:16:51.309Z,86.77
2023-01-19T13:19:22.189Z,87.54
2023-01-19T13:21:49.308Z,86.95
2023-01-19T13:24:19.947Z,86.65
2023-01-19T13:26:55.635Z,86.04
2023-01-19T13:29:29.860Z,86.25
2023-01-19T13:31:59.983Z,86.44
2023-01-19T13:34:28.300Z,86.81
2023-01-19T13:36:57.267Z,87.15
2023-01-19T13:39:28.795Z,87.16
2023-01-19T13:41:59.909Z,87.04
2023-01-19T13:44:29.848Z,86.63
2023-01-19T13:46:58.941Z,85.66
2023-01-19T13:49:30.667Z,85.77
2023-01-19T13:52:11.895Z,85.57
2023-01-19T13:54:50.659Z,85.92
2023-01-19T13:57:25.359Z,86.00
2023-01-19T14:00:05.716Z,84.95
2023-01-19T14:02:34.415Z,85.07
2023-01-19T14:05:13.947Z,85.38
2023-01-19T14:07:45.437Z,85.34
2023-01-19T14:10:15.027Z,85.02
2023-01-19T14:12:58.524Z,85.36
2023-01-19T14:15:30.123Z,85.31
2023-01-19T14:18:25.476Z,85.58
2023-01-19T14:20:58.320Z,85.92
2023-01-19T14:23:52.616Z,85.99
2023-01-19T14:26:48.516Z,86.14
2023-01-19T14:29:27.102Z,85.89
2023-01-19T14:32:07.309Z,86.06
2023-01-19T14:34:39.980Z,86.33
2023-01-19T14:37:16.374Z,86.43
2023-01-19T14:39:45.673Z,86.30
2023-01-19T14:42:21.059Z,86.13
2023-01-19T14:44:50.767Z,86.22
2023-01-19T14:47:26.883Z,85.45
2023-01-19T14:49:58.151Z,85.59
2023-01-19T14:52:26.261Z,85.27
2023-01-19T14:54:55.071Z,86.15
2023-01-19T14:57:22.128Z,86.12
2023-01-19T14:59:49.178Z,86.25
2023-01-19T15:02:16.481Z,86.16
2023-01-19T15:04:43.303Z,85.87
2023-01-19T15:07:17.844Z,86.19
2023-01-19T15:09:45.076Z,86.39
2023-01-19T15:12:17.628Z,87.09
2023-01-19T15:14:45.136Z,87.06
2023-01-19T15:17:17.658Z,87.26
2023-01-19T15:19:44.493Z,87.66
2023-01-19T15:22:13.091Z,87.52
2023-01-19T15:24:41.469Z,87.53
2023-01-19T15:27:10.866Z,87.51
2023-01-19T15:29:39.226Z,87.83
2023-01-19T15:32:07.235Z,88.44
2023-01-19T15:34:33.936Z,88.19
2023-01-19T15:37:00.977Z,88.16
2023-01-19T15:39:29.209Z,88.24
2023-01-19T15:41:56.180Z,88.54
2023-01-19T15:44:23.154Z,88.60
2023-01-19T15:46:49.915Z,88.62
2023-01-19T15:49:16.908Z,88.43
2023-01-19T15:51:43.731Z,88.51
2023-01-19T15:54:13.204Z,88.95
2023-01-19T15:56:41.429Z,88.45
2023-01-19T15:59:08.647Z,89.15
2023-01-19T16:01:35.498Z,88.92
2023-01-19T16:04:04.595Z,89.47
2023-01-19T16:06:31.725Z,89.25
2023-01-19T16:08:58.689Z,89.98
2023-01-19T16:11:26.117Z,89.44
2023-01-19T16:13:54.237Z,89.15
2023-01-19T16:16:22.679Z,89.39
2023-01-19T16:18:49.996Z,89.93
2023-01-19T16:21:17.280Z,89.81
2023-01-19T16:23:44.201Z,90.08
2023-01-19T16:26:25.107Z,89.85
2023-01-19T16:28:51.956Z,90.31
2023-01-19T16:31:20.244Z,90.44
2023-01-19T16:33:47.141Z,90.08
2023-01-19T16:36:18.978Z,90.27
2023-01-19T16:38:45.764Z,90.57
2023-01-19T16:41:12.554Z,90.50
2023-01-19T16:43:39.465Z,90.50
2023-01-19T16:46:07.432Z,90.24
2023-01-19T16:48:37.869Z,90.52
2023-01-19T16:51:06.361Z,91.05
2023-01-19T16:53:34.374Z,90.29
2023-01-19T16:56:04.915Z,90.10
2023-01-19T16:58:34.769Z,90.14
2023-01-19T17:01:06.953Z,90.21
2023-01-19T17:03:35.646Z,90.75
2023-01-19T17:06:02.810Z,91.25
2023-01-19T17:08:29.710Z,90.97
2023-01-19T17:10:56.605Z,91.08
2023-01-19T17:13:23.448Z,91.10
2023-01-19T17:15:50.275Z,91.47
2023-01-19T17:18:17.043Z,92.13
2023-01-19T17:20:45.837Z,91.70
2023-01-19T17:23:12.839Z,91.67
2023-01-19T17:25:43.714Z,91.85
2023-01-19T17:28:10.568Z,92.33
2023-01-19T17:30:42.047Z,91.90
2023-01-19T17:33:09.017Z,91.89
2023-01-19T17:35:35.958Z,91.93
2023-01-19T17:38:04.479Z,91.93
2023-01-19T17:40:38.675Z,91.73
2023-01-19T17:43:07.465Z,92.39
2023-01-19T17:45:35.096Z,92.07
2023-01-19T17:48:01.933Z,92.59
2023-01-19T17:50:29.008Z,91.98
2023-01-19T17:52:55.783Z,92.80
2023-01-19T17:55:24.505Z,92.18
2023-01-19T17:57:51.744Z,92.49
2023-01-19T18:00:19.337Z,92.76
2023-01-19T18:02:50.263Z,92.00
2023-01-19T18:05:17.267Z,91.94
2023-01-19T18:07:44.219Z,92.37
2023-01-19T18:10:11.778Z,92.22
2023-01-19T18:12:40.415Z,92.31
2023-01-19T18:15:11.021Z,92.18
2023-01-19T18:17:37.981Z,91.82
2023-01-19T18:20:05.952Z,92.15
2023-01-19T18:22:32.852Z,92.20
2023-01-19T18:24:59.749Z,92.57
2023-01-19T18:27:26.638Z,92.27
2023-01-19T18:29:55.315Z,92.50
2023-01-19T18:32:22.055Z,92.96
2023-01-19T18:34:48.927Z,93.48
2023-01-19T18:37:16.104Z,93.72
2023-01-19T18:39:42.802Z,94.14
2023-01-19T18:42:09.980Z,93.99
2023-01-19T18:44:36.814Z,93.39
2023-01-19T18:47:07.923Z,93.81
2023-01-19T18:49:35.316Z,93.72
2023-01-19T18:52:02.075Z,93.63
2023-01-19T18:54:28.886Z,93.58
2023-01-19T18:56:55.828Z,93.81
2023-01-19T18:59:22.788Z,93.76
2023-01-19T19:01:49.812Z,94.26
2023-01-19T19:04:18.573Z,93.96
2023-01-19T19:06:45.386Z,93.76
2023-01-19T19:09:12.172Z,93.79
2023-01-19T19:11:39.600Z,93.49
2023-01-19T19:14:06.843Z,93.96
2023-01-19T19:16:36.208Z,93.82
2023-01-19T19:19:03.941Z,93.62
2023-01-19T19:21:32.042Z,94.03
2023-01-19T19:23:58.862Z,94.07
2023-01-19T19:26:26.562Z,94.03
2023-01-19T19:28:53.658Z,94.47
2023-01-19T19:31:23.463Z,94.54
2023-01-19T19:33:53.036Z,94.78
2023-01-19T19:36:21.242Z,95.87
2023-01-19T19:38:49.952Z,96.54
2023-01-19T19:41:19.415Z,96.27
2023-01-19T19:43:50.176Z,96.88
2023-01-19T19:46:19.352Z,96.60
2023-01-19T19:48:46.734Z,96.64
2023-01-19T19:51:19.432Z,96.52
2023-01-19T19:53:47.882Z,96.71
2023-01-19T19:56:17.316Z,96.87
2023-01-19T19:58:46.442Z,97.19
2023-01-19T20:01:15.787Z,97.39
2023-01-19T20:03:43.025Z,96.83
2023-01-19T20:06:12.406Z,97.10
2023-01-19T20:08:39.307Z,96.90
2023-01-19T20:11:25.438Z,97.71
2023-01-19T20:13:52.898Z,97.92
2023-01-19T20:16:22.164Z,98.01
2023-01-19T20:18:50.723Z,97.36
2023-01-19T20:21:19.720Z,97.06
2023-01-19T20:23:48.000Z,97.82
2023-01-19T20:26:17.424Z,97.75
2023-01-19T20:28:48.269Z,97.86
2023-01-19T20:31:17.750Z,98.36
2023-01-19T20:33:45.260Z,98.23
2023-01-19T20:36:12.631Z,98.63
2023-01-19T20:38:42.396Z,99.33
2023-01-19T20:41:11.528Z,98.45
2023-01-19T20:43:41.960Z,98.82
2023-01-19T20:46:10.692Z,98.35
2023-01-19T20:48:39.677Z,98.58
2023-01-19T20:51:08.357Z,98.18
2023-01-19T20:53:35.687Z,98.73
2023-01-19T20:56:06.005Z,98.29
2023-01-19T20:58:33.362Z,98.55
2023-01-19T21:01:00.880Z,98.36
2023-01-19T21:03:29.231Z,98.30
2023-01-19T21:05:58.638Z,98.67
2023-01-19T21:08:28.110Z,98.41
2023-01-19T21:10:55.820Z,98.56
2023-01-19T21:13:22.987Z,98.40
2023-01-19T21:15:49.887Z,98.27
2023-01-19T21:18:16.804Z,98.52
2023-01-19T21:20:47.725Z,98.24
2023-01-19T21:23:14.580Z,98.07
2023-01-19T21:25:51.618Z,97.71
2023-01-19T21:28:18.644Z,97.76
2023-01-19T21:30:46.302Z,98.22
2023-01-19T21:33:13.578Z,98.10
2023-01-19T21:35:42.431Z,98.12
2023-01-19T21:38:11.023Z,98.10
2023-01-19T21:40:38.133Z,98.34
2023-01-19T21:43:04.911Z,98.09
2023-01-19T21:45:31.739Z,97.89
2023-01-19T21:47:59.032Z,97.79
2023-01-19T21:50:25.904Z,97.98
2023-01-19T21:52:53.265Z,98.49
2023-01-19T21:55:21.433Z,98.10
2023-01-19T21:57:51.863Z,97.88
2023-01-19T22:00:19.064Z,98.38
2023-01-19T22:02:58.595Z,98.29
2023-01-19T22:05:29.677Z,98.57
2023-01-19T22:07:56.923Z,98.39
2023-01-19T22:10:26.129Z,98.31
2023-01-19T22:12:52.853Z,98.72
2023-01-19T22:15:22.150Z,98.61
2023-01-19T22:17:51.078Z,98.75
2023-01-19T22:20:17.914Z,99.00
2023-01-19T22:22:44.821Z,98.77
2023-01-19T22:25:11.891Z,98.85
2023-01-19T22:27:41.739Z,98.85
2023-01-19T22:30:12.390Z,98.85
2023-01-19T22:32:39.144Z,99.08
2023-01-19T22:35:06.452Z,99.02
2023-01-19T22:37:35.622Z,98.83
2023-01-19T22:40:02.442Z,98.92
2023-01-19T22:42:29.445Z,99.18
2023-01-19T22:44:57.689Z,99.13
2023-01-19T22:47:24.674Z,99.32
2023-01-19T22:49:51.698Z,99.22
2023-01-19T22:52:22.450Z,99.78
2023-01-19T22:54:49.352Z,99.68
2023-01-19T22:57:16.255Z,99.82
2023-01-19T22:59:43.083Z,99.96
2023-01-19T23:02:11.745Z,100.00
2023-01-19T23:04:38.968Z,100.00
2023-01-19T23:07:06.331Z,100.00
2023-01-19T23:09:33.211Z,100.00
2023-01-19T23:12:01.400Z,100.00
2023-01-19T23:14:28.239Z,100.00
2023-01-19T23:16:59.286Z,100.00
2023-01-19T23:19:28.095Z,100.00
2023-01-19T23:21:55.940Z,100.00
2023-01-19T23:24:25.647Z,100.00
2023-01-19T23:26:52.483Z,100.00
2023-01-19T23:29:19.355Z,100.00
2023-01-19T23:31:47.621Z,100.00
2023-01-19T23:34:14.953Z,100.00
2023-01-19T23:36:47.143Z,100.00
2023-01-19T23:39:15.885Z,100.00
2023-01-19T23:41:44.841Z,100.00
2023-01-19T23:44:14.735Z,100.00
2023-01-19T23:46:42.038Z,100.00
2023-01-19T23:49:09.107Z,100.00
2023-01-19T23:51:35.993Z,100.00
2023-01-19T23:54:06.078Z,100.00
2023-01-19T23:56:34.990Z,100.00
2023-01-19T23:59:04.246Z,100.00
